Time;durP1;ratioP1;P1;durP2;ratioP2;P2;SDS_P1;SDS_P2;PMS_P1;PMS_P2;Temp;Humidity;BMP_temperature;BMP_pressure;BME280_temperature;BME280_humidity;BME280_pressure;Samples;Min_cycle;Max_cycle;Signal;HPM_P1;HPM_P2
2021/01/04 00:02:13;;;;;;;9.80;7.57;;;2.50;99.90;;;;;;4992046;28;20288;-86
2021/01/04 00:05:04;;;;;;;13.00;10.10;;;2.40;99.90;;;;;;4997153;28;20216;-85
2021/01/04 00:08:10;;;;;;;10.48;9.05;;;2.40;99.90;;;;;;4978000;28;20196;-86
2021/01/04 00:10:55;;;;;;;10.75;8.55;;;2.40;99.90;;;;;;4978248;28;20199;-85
2021/01/04 00:13:29;;;;;;;8.50;7.60;;;2.40;99.90;;;;;;4976817;28;20307;-86
2021/01/04 00:16:18;;;;;;;11.80;10.05;;;2.40;99.90;;;;;;4980385;28;20188;-85
2021/01/04 00:18:47;;;;;;;11.18;10.00;;;2.40;99.90;;;;;;4990319;28;20214;-86
2021/01/04 00:21:26;;;;;;;11.55;9.85;;;2.40;99.90;;;;;;4985757;28;20204;-86
2021/01/04 00:24:06;;;;;;;11.20;10.00;;;2.40;99.90;;;;;;4996367;28;20241;-86
2021/01/04 00:26:39;;;;;;;11.57;9.55;;;2.40;99.90;;;;;;4995845;28;20546;-86
2021/01/04 00:29:06;;;;;;;10.23;8.93;;;2.50;99.90;;;;;;4995157;28;20611;-86
2021/01/04 00:31:37;;;;;;;11.40;10.25;;;2.50;99.90;;;;;;4996016;28;20248;-85
2021/01/04 00:34:07;;;;;;;11.13;9.55;;;2.50;99.90;;;;;;4996219;28;20642;-83
2021/01/04 00:36:41;;;;;;;11.15;9.88;;;2.50;99.90;;;;;;4995841;28;20219;-85
2021/01/04 00:39:36;;;;;;;9.82;8.65;;;2.50;99.90;;;;;;4995425;28;20236;-86
2021/01/04 00:42:11;;;;;;;11.25;9.30;;;2.60;99.90;;;;;;4970824;28;20325;-85
2021/01/04 00:44:48;;;;;;;12.15;9.95;;;2.60;99.90;;;;;;4976221;28;20203;-86
2021/01/04 00:47:24;;;;;;;11.05;9.63;;;2.60;99.90;;;;;;4994778;28;20634;-86
2021/01/04 00:49:59;;;;;;;10.95;8.98;;;2.60;99.90;;;;;;4989032;28;20298;-86
2021/01/04 00:52:33;;;;;;;10.73;9.35;;;2.60;99.90;;;;;;4980163;28;20290;-85
2021/01/04 00:55:18;;;;;;;10.65;9.38;;;2.70;99.90;;;;;;4979905;28;20291;-85
2021/01/04 00:58:08;;;;;;;9.98;8.65;;;2.70;99.90;;;;;;4996856;28;20202;-85
2021/01/04 01:00:39;;;;;;;10.23;9.13;;;2.70;99.90;;;;;;4981457;28;20204;-84
2021/01/04 01:03:46;;;;;;;12.90;10.40;;;2.70;99.90;;;;;;4977467;28;20207;-85
2021/01/04 01:06:19;;;;;;;9.73;8.43;;;2.60;99.90;;;;;;4975878;28;20542;-86
2021/01/04 01:08:46;;;;;;;12.52;10.68;;;2.60;99.90;;;;;;4996660;28;20457;-85
2021/01/04 01:11:18;;;;;;;11.35;9.68;;;2.60;99.90;;;;;;4986535;28;20204;-85
2021/01/04 01:13:57;;;;;;;10.07;8.77;;;2.60;99.90;;;;;;4977777;28;20633;-85
2021/01/04 01:16:39;;;;;;;11.48;10.27;;;2.50;99.90;;;;;;4980735;28;20329;-85
2021/01/04 01:19:21;;;;;;;11.25;8.60;;;2.60;99.90;;;;;;4987684;28;20283;-84
2021/01/04 01:21:48;;;;;;;13.38;10.40;;;2.60;99.90;;;;;;4977506;28;20624;-86
2021/01/04 01:24:15;;;;;;;11.45;10.25;;;2.50;99.90;;;;;;4977545;28;20295;-86
2021/01/04 01:27:08;;;;;;;11.40;9.82;;;2.50;99.90;;;;;;4999295;28;20199;-85
2021/01/04 01:30:06;;;;;;;12.68;10.30;;;2.50;99.90;;;;;;4955296;28;20234;-85
2021/01/04 01:33:20;;;;;;;11.23;9.90;;;2.50;99.90;;;;;;4979709;28;20697;-87
2021/01/04 01:36:02;;;;;;;13.02;9.70;;;2.30;99.90;;;;;;4997677;28;20289;-85
2021/01/04 01:39:10;;;;;;;11.48;9.30;;;2.30;99.90;;;;;;4977505;28;20277;-85
2021/01/04 01:42:19;;;;;;;13.65;11.77;;;2.40;99.90;;;;;;4964659;28;20214;-85
2021/01/04 01:44:50;;;;;;;12.63;9.85;;;2.30;99.90;;;;;;4989746;28;20249;-85
2021/01/04 01:47:24;;;;;;;12.25;9.88;;;2.40;99.90;;;;;;4992893;28;20638;-84
2021/01/04 01:50:00;;;;;;;12.40;10.30;;;2.50;99.90;;;;;;4977625;28;20232;-85
2021/01/04 01:52:51;;;;;;;11.88;9.90;;;2.40;99.90;;;;;;4979662;28;20238;-84
2021/01/04 01:55:28;;;;;;;11.63;9.70;;;2.40;99.90;;;;;;4977592;28;20200;-84
2021/01/04 01:58:35;;;;;;;11.43;9.80;;;2.50;99.90;;;;;;4979739;28;20205;-86
2021/01/04 02:01:21;;;;;;;12.57;9.32;;;2.40;99.90;;;;;;4982567;28;20184;-85
2021/01/04 02:03:56;;;;;;;11.27;9.15;;;2.50;99.90;;;;;;4977077;28;20222;-85
2021/01/04 02:06:47;;;;;;;11.23;9.48;;;2.50;99.90;;;;;;4979575;28;20270;-85
2021/01/04 02:09:19;;;;;;;11.38;9.27;;;2.50;99.90;;;;;;4994382;28;20198;-85
2021/01/04 02:11:53;;;;;;;13.45;9.98;;;2.60;99.90;;;;;;4976396;28;20223;-85
2021/01/04 02:14:27;;;;;;;11.88;10.35;;;2.50;99.90;;;;;;4976821;28;20191;-84
2021/01/04 02:17:14;;;;;;;10.80;9.32;;;2.50;99.90;;;;;;4976744;28;20231;-84
2021/01/04 02:19:57;;;;;;;13.05;10.30;;;2.50;99.90;;;;;;4976568;28;20195;-84
2021/01/04 02:22:56;;;;;;;14.20;10.77;;;2.50;99.90;;;;;;4993064;28;20210;-85
2021/01/04 02:25:26;;;;;;;13.50;11.20;;;2.50;99.90;;;;;;4993052;28;20455;-86
2021/01/04 02:27:56;;;;;;;13.07;11.60;;;2.50;99.90;;;;;;4976955;28;20446;-84
2021/01/04 02:30:23;;;;;;;11.63;9.98;;;2.50;99.90;;;;;;4976699;28;20246;-85
2021/01/04 02:32:49;;;;;;;12.68;10.55;;;2.50;99.90;;;;;;4976758;28;20232;-86
2021/01/04 02:35:16;;;;;;;12.43;10.95;;;2.50;99.90;;;;;;4995523;28;20238;-85
2021/01/04 02:37:43;;;;;;;12.18;10.05;;;2.40;99.90;;;;;;4980206;28;20212;-85
2021/01/04 02:40:14;;;;;;;13.75;10.98;;;2.50;99.90;;;;;;4984597;28;20195;-84
2021/01/04 02:42:44;;;;;;;10.50;8.87;;;2.40;99.90;;;;;;4975531;28;20207;-84
2021/01/04 02:45:14;;;;;;;11.75;10.15;;;2.40;99.90;;;;;;4982156;28;20457;-83
2021/01/04 02:48:10;;;;;;;11.57;9.77;;;2.40;99.90;;;;;;4983589;28;20213;-84
2021/01/04 02:50:45;;;;;;;13.65;11.13;;;2.40;99.90;;;;;;4989781;28;20265;-85
2021/01/04 02:53:40;;;;;;;12.65;10.57;;;2.30;99.90;;;;;;4975625;28;20245;-84
2021/01/04 02:56:18;;;;;;;10.57;9.07;;;2.30;99.90;;;;;;4958729;28;20331;-85
2021/01/04 02:59:05;;;;;;;10.97;9.33;;;2.30;99.90;;;;;;4975188;28;20273;-84
2021/01/04 03:01:39;;;;;;;10.03;8.97;;;2.30;99.90;;;;;;4994311;28;20542;-85
2021/01/04 03:04:10;;;;;;;12.27;9.95;;;2.30;99.90;;;;;;4977323;28;20496;-85
2021/01/04 03:06:41;;;;;;;12.43;10.65;;;2.20;99.90;;;;;;4974913;28;20247;-85
2021/01/04 03:09:09;;;;;;;14.20;11.02;;;2.20;99.90;;;;;;4975776;28;20329;-84
2021/01/04 03:11:38;;;;;;;11.70;9.52;;;2.20;99.90;;;;;;4974975;28;20235;-85
2021/01/04 03:14:16;;;;;;;11.82;9.85;;;2.30;99.90;;;;;;4975165;28;20204;-84
2021/01/04 03:16:57;;;;;;;13.25;10.73;;;2.30;99.90;;;;;;4978028;28;20484;-85
2021/01/04 03:19:30;;;;;;;14.20;11.57;;;2.30;99.90;;;;;;4975777;28;20196;-92
2021/01/04 03:22:00;;;;;;;13.73;10.53;;;2.40;99.90;;;;;;4981660;28;20654;-84
2021/01/04 03:24:26;;;;;;;11.93;10.27;;;2.40;99.90;;;;;;4977796;28;20452;-85
2021/01/04 03:26:57;;;;;;;12.85;10.77;;;2.40;99.90;;;;;;4976525;28;20288;-84
2021/01/04 03:29:24;;;;;;;14.48;12.25;;;2.40;99.90;;;;;;4980103;28;20287;-93
2021/01/04 03:31:51;;;;;;;16.02;12.57;;;2.30;99.90;;;;;;4990824;28;20264;-84
2021/01/04 03:34:17;;;;;;;12.63;10.57;;;2.30;99.90;;;;;;4974893;28;20204;-84
2021/01/04 03:36:43;;;;;;;13.55;10.60;;;2.30;99.90;;;;;;4976809;28;20199;-85
2021/01/04 03:39:10;;;;;;;11.90;10.35;;;2.40;99.90;;;;;;4984357;28;20204;-84
2021/01/04 03:41:36;;;;;;;12.68;10.63;;;2.40;99.90;;;;;;4985395;28;20278;-87
2021/01/04 03:44:03;;;;;;;12.38;11.07;;;2.50;99.90;;;;;;4976945;28;20196;-87
2021/01/04 03:46:31;;;;;;;15.10;12.20;;;2.40;99.90;;;;;;4993204;28;20648;-86
2021/01/04 03:48:57;;;;;;;16.50;12.45;;;2.40;99.90;;;;;;4976065;28;20211;-86
2021/01/04 03:51:26;;;;;;;15.00;11.05;;;2.40;99.90;;;;;;4987296;28;20283;-92
2021/01/04 03:53:53;;;;;;;14.52;11.57;;;2.30;99.90;;;;;;4992442;28;20209;-86
2021/01/04 03:56:21;;;;;;;14.23;11.88;;;2.40;99.90;;;;;;4992463;28;20290;-86
2021/01/04 03:58:47;;;;;;;12.02;10.75;;;2.40;99.90;;;;;;4992611;28;20202;-85
2021/01/04 04:01:14;;;;;;;15.15;11.43;;;2.40;99.90;;;;;;4984340;28;20299;-86
2021/01/04 04:03:41;;;;;;;13.20;10.13;;;2.40;99.90;;;;;;4992532;28;20261;-86
2021/01/04 04:06:11;;;;;;;13.95;11.50;;;2.40;99.90;;;;;;4988263;28;20199;-85
2021/01/04 04:08:39;;;;;;;14.20;11.43;;;2.30;99.90;;;;;;4995369;28;20635;-86
2021/01/04 04:11:06;;;;;;;15.30;11.13;;;2.30;99.90;;;;;;4996988;28;20199;-85
2021/01/04 04:13:32;;;;;;;14.07;11.70;;;2.30;99.90;;;;;;4994720;28;20288;-85
2021/01/04 04:15:59;;;;;;;13.90;10.65;;;2.30;99.90;;;;;;4982553;28;20548;-85
2021/01/04 04:18:25;;;;;;;14.18;11.68;;;2.30;99.90;;;;;;4997237;28;20203;-85
2021/01/04 04:20:52;;;;;;;12.45;10.55;;;2.30;99.90;;;;;;4997312;28;20557;-84
2021/01/04 04:23:19;;;;;;;14.35;10.88;;;2.30;99.90;;;;;;4985523;28;20210;-84
2021/01/04 04:25:45;;;;;;;11.43;10.18;;;2.30;99.90;;;;;;4985845;28;20202;-85
2021/01/04 04:28:11;;;;;;;12.80;10.23;;;2.30;99.90;;;;;;4996203;28;20206;-85
2021/01/04 04:30:38;;;;;;;13.02;10.85;;;2.30;99.90;;;;;;4996308;28;20205;-85
2021/01/04 04:33:04;;;;;;;13.45;11.23;;;2.30;99.90;;;;;;4996588;28;20678;-84
2021/01/04 04:35:31;;;;;;;15.85;11.95;;;2.30;99.90;;;;;;4996898;28;20609;-85
2021/01/04 04:37:59;;;;;;;15.80;11.07;;;2.30;99.90;;;;;;4991703;28;20207;-84
2021/01/04 04:40:28;;;;;;;13.15;11.02;;;2.40;99.90;;;;;;4990478;28;20539;-85
2021/01/04 04:42:56;;;;;;;14.13;10.70;;;2.30;99.90;;;;;;4995054;28;20202;-85
2021/01/04 04:45:26;;;;;;;12.75;9.43;;;2.30;99.90;;;;;;4995702;28;20429;-92
2021/01/04 04:48:10;;;;;;;10.25;9.13;;;2.40;99.90;;;;;;4996258;28;20212;-84
2021/01/04 04:51:01;;;;;;;10.45;9.35;;;2.40;99.90;;;;;;4994567;28;20604;-85
2021/01/04 04:54:01;;;;;;;10.70;8.68;;;2.40;99.90;;;;;;4994516;28;20519;-85
2021/01/04 04:57:05;;;;;;;11.35;9.02;;;2.40;99.90;;;;;;4981100;28;20187;-84
2021/01/04 04:59:45;;;;;;;10.57;9.27;;;2.50;99.90;;;;;;4991103;28;20750;-86
2021/01/04 05:02:17;;;;;;;9.68;8.68;;;2.50;99.90;;;;;;4983147;28;20191;-85
2021/01/04 05:05:17;;;;;;;12.60;9.55;;;2.50;99.90;;;;;;5006134;28;20266;-83
2021/01/04 05:07:51;;;;;;;13.23;10.05;;;2.50;99.90;;;;;;4980750;28;20206;-83
2021/01/04 05:10:24;;;;;;;11.13;9.48;;;2.50;99.90;;;;;;4996182;28;20193;-83
2021/01/04 05:13:03;;;;;;;11.57;9.15;;;2.40;99.90;;;;;;4977771;28;20236;-84
2021/01/04 05:15:40;;;;;;;10.32;8.63;;;2.40;99.90;;;;;;4983430;28;20283;-86
2021/01/04 05:18:54;;;;;;;12.68;10.05;;;2.40;99.90;;;;;;4978216;28;20191;-85
2021/01/04 05:21:58;;;;;;;11.27;9.53;;;2.50;99.90;;;;;;4986305;28;20184;-85
2021/01/04 05:25:05;;;;;;;11.67;9.27;;;2.60;99.90;;;;;;4981374;28;20455;-91
2021/01/04 05:27:54;;;;;;;10.50;9.10;;;2.60;99.90;;;;;;4980990;28;20449;-83
2021/01/04 05:30:37;;;;;;;11.80;9.55;;;2.60;99.90;;;;;;4953733;28;20197;-84
2021/01/04 05:33:28;;;;;;;10.87;9.77;;;2.50;99.90;;;;;;4976352;28;20252;-85
2021/01/04 05:36:07;;;;;;;13.30;10.85;;;2.50;99.90;;;;;;4984682;28;20974;-85
2021/01/04 05:38:41;;;;;;;12.17;9.77;;;2.50;99.90;;;;;;4982712;28;20206;-85
2021/01/04 05:41:29;;;;;;;11.53;10.30;;;2.50;99.90;;;;;;4975994;28;20542;-86
2021/01/04 05:44:13;;;;;;;12.52;10.00;;;2.50;99.90;;;;;;4989494;28;20589;-85
2021/01/04 05:46:48;;;;;;;13.60;11.23;;;2.50;99.90;;;;;;4992783;28;20206;-85
2021/01/04 05:49:26;;;;;;;12.95;10.85;;;2.50;99.90;;;;;;4976025;28;20501;-85
2021/01/04 05:51:53;;;;;;;11.68;9.70;;;2.50;99.90;;;;;;4978322;28;20222;-85
2021/01/04 05:54:27;;;;;;;14.20;9.40;;;2.50;99.90;;;;;;4995456;28;20550;-82
2021/01/04 05:57:04;;;;;;;13.37;11.37;;;2.50;99.90;;;;;;4994453;28;20919;-85
2021/01/04 05:59:31;;;;;;;13.30;11.32;;;2.50;99.90;;;;;;4975851;28;20539;-84
2021/01/04 06:02:04;;;;;;;13.35;11.63;;;2.50;99.90;;;;;;4976722;28;20212;-84
2021/01/04 06:04:30;;;;;;;12.50;10.15;;;2.40;99.90;;;;;;4988145;28;20603;-83
2021/01/04 06:07:00;;;;;;;13.00;10.27;;;2.40;99.90;;;;;;4993692;28;20202;-82
2021/01/04 06:09:27;;;;;;;13.68;10.40;;;2.40;99.90;;;;;;4994395;28;20432;-82
2021/01/04 06:11:56;;;;;;;15.38;12.35;;;2.50;99.90;;;;;;4993896;28;20266;-82
2021/01/04 06:14:27;;;;;;;12.10;10.30;;;2.50;99.90;;;;;;4995209;28;20211;-81
2021/01/04 06:17:00;;;;;;;16.10;11.80;;;2.50;99.90;;;;;;4993121;28;20539;-81
2021/01/04 06:19:30;;;;;;;16.63;11.52;;;2.50;99.90;;;;;;4994409;28;20850;-81
2021/01/04 06:21:58;;;;;;;13.60;11.75;;;2.50;99.90;;;;;;4978733;28;20200;-83
2021/01/04 06:24:30;;;;;;;14.02;11.23;;;2.50;99.90;;;;;;4981615;28;20297;-84
2021/01/04 06:26:59;;;;;;;13.65;11.18;;;2.50;99.90;;;;;;4978416;28;20188;-85
2021/01/04 06:29:31;;;;;;;11.87;10.13;;;2.50;99.90;;;;;;4976123;28;20246;-85
2021/01/04 06:32:00;;;;;;;13.82;11.25;;;2.60;99.90;;;;;;4975561;28;20829;-84
2021/01/04 06:34:36;;;;;;;13.07;11.15;;;2.50;99.90;;;;;;4980334;28;20199;-85
2021/01/04 06:37:11;;;;;;;13.07;10.25;;;2.50;99.90;;;;;;5006078;28;20282;-86
2021/01/04 06:39:38;;;;;;;14.10;11.23;;;2.50;99.90;;;;;;4993879;28;20198;-85
2021/01/04 06:42:16;;;;;;;12.15;9.98;;;2.60;99.90;;;;;;4995098;28;20195;-84
2021/01/04 06:44:50;;;;;;;12.77;10.30;;;2.50;99.90;;;;;;4990905;28;20279;-82
2021/01/04 06:47:32;;;;;;;14.88;9.90;;;2.50;99.90;;;;;;4993357;28;20191;-82
2021/01/04 06:50:06;;;;;;;11.35;9.98;;;2.50;99.90;;;;;;4993686;28;20318;-81
2021/01/04 06:53:11;;;;;;;13.15;10.82;;;2.50;99.90;;;;;;4989902;28;20220;-81
2021/01/04 06:56:20;;;;;;;15.10;10.30;;;2.50;99.90;;;;;;4992482;28;20191;-82
2021/01/04 06:59:46;;;;;;;14.30;10.95;;;2.50;99.90;;;;;;4990829;28;20279;-82
2021/01/04 07:02:37;;;;;;;11.68;10.27;;;2.50;99.90;;;;;;4927711;29;20195;-82
2021/01/04 07:05:38;;;;;;;16.10;11.67;;;2.60;99.90;;;;;;4988741;28;20309;-81
2021/01/04 07:08:29;;;;;;;13.77;11.00;;;2.50;99.90;;;;;;4994809;28;20788;-82
2021/01/04 07:11:11;;;;;;;14.05;11.73;;;2.50;99.90;;;;;;5005161;28;20529;-81
2021/01/04 07:13:53;;;;;;;14.75;12.07;;;2.50;99.90;;;;;;4997718;28;20306;-82
2021/01/04 07:16:50;;;;;;;12.25;10.25;;;2.50;99.90;;;;;;5004218;28;20207;-81
2021/01/04 07:19:46;;;;;;;13.90;10.73;;;2.50;99.90;;;;;;5013828;28;20297;-82
2021/01/04 07:22:26;;;;;;;14.03;10.97;;;2.50;99.90;;;;;;5014047;28;20222;-81
2021/01/04 07:25:05;;;;;;;13.63;11.15;;;2.50;99.90;;;;;;5007891;28;20914;-81
2021/01/04 07:27:51;;;;;;;13.23;10.85;;;2.50;99.90;;;;;;4993877;28;20190;-82
2021/01/04 07:30:25;;;;;;;14.48;11.70;;;2.50;99.90;;;;;;4994023;28;20221;-81
2021/01/04 07:33:00;;;;;;;11.88;10.40;;;2.50;99.90;;;;;;4993655;28;20243;-81
2021/01/04 07:35:31;;;;;;;13.57;10.93;;;2.60;99.90;;;;;;4993519;28;20530;-82
2021/01/04 07:38:14;;;;;;;11.80;10.27;;;2.50;99.90;;;;;;4995674;28;20249;-82
2021/01/04 07:40:50;;;;;;;13.27;10.45;;;2.50;99.90;;;;;;4997630;28;20192;-81
2021/01/04 07:43:40;;;;;;;16.25;11.18;;;2.60;99.90;;;;;;4998135;28;20205;-81
2021/01/04 07:46:46;;;;;;;13.55;11.55;;;2.60;99.90;;;;;;4997833;28;20195;-81
2021/01/04 07:49:45;;;;;;;13.27;10.35;;;2.50;99.90;;;;;;4998833;28;20535;-81
2021/01/04 07:52:53;;;;;;;14.32;11.40;;;2.50;99.90;;;;;;4998470;28;20299;-80
2021/01/04 07:55:54;;;;;;;13.85;11.13;;;2.50;99.90;;;;;;4975659;28;20645;-81
2021/01/04 07:58:46;;;;;;;14.75;11.18;;;2.50;99.90;;;;;;4990736;28;20213;-81
2021/01/04 08:01:54;;;;;;;11.55;9.80;;;2.50;99.90;;;;;;5015511;28;20193;-81
2021/01/04 08:04:46;;;;;;;14.27;11.60;;;2.50;99.90;;;;;;4986465;28;20281;-81
2021/01/04 08:07:48;;;;;;;16.80;12.27;;;2.50;99.90;;;;;;5017079;28;20244;-81
2021/01/04 08:10:33;;;;;;;15.07;11.82;;;2.50;99.90;;;;;;5016455;28;20193;-81
2021/01/04 08:13:32;;;;;;;12.82;10.23;;;2.60;99.90;;;;;;5016802;28;20317;-81
2021/01/04 08:16:02;;;;;;;18.20;11.20;;;2.60;99.90;;;;;;5009988;28;20201;-81
2021/01/04 08:18:31;;;;;;;18.35;12.55;;;2.50;99.90;;;;;;5016357;28;20795;-82
2021/01/04 08:21:07;;;;;;;12.95;11.27;;;2.50;99.90;;;;;;5016616;28;20199;-82
2021/01/04 08:23:48;;;;;;;12.88;11.25;;;2.50;99.90;;;;;;5016109;28;20202;-81
2021/01/04 08:26:27;;;;;;;13.82;10.35;;;2.50;99.90;;;;;;5016565;28;20190;-82
2021/01/04 08:29:06;;;;;;;15.82;12.45;;;2.60;99.90;;;;;;5016859;28;20187;-81
2021/01/04 08:31:47;;;;;;;12.80;10.70;;;2.60;99.90;;;;;;5016075;28;20230;-81
2021/01/04 08:34:19;;;;;;;14.57;11.68;;;2.60;99.90;;;;;;5016454;28;20205;-81
2021/01/04 08:36:55;;;;;;;14.75;11.35;;;2.60;99.90;;;;;;5015972;28;20197;-80
2021/01/04 08:39:38;;;;;;;15.75;11.85;;;2.50;99.90;;;;;;5012722;28;20620;-81
2021/01/04 08:42:31;;;;;;;14.77;12.27;;;2.50;99.90;;;;;;4996039;28;20258;-80
2021/01/04 08:45:07;;;;;;;12.73;10.23;;;2.60;99.90;;;;;;4990339;28;20202;-92
2021/01/04 08:47:55;;;;;;;;;;;;;;;;;;;;;
2021/01/04 08:51:00;;;;;;;13.15;10.65;;;2.60;99.90;;;;;;4999303;28;20202;-82
2021/01/04 08:53:34;;;;;;;11.68;10.02;;;2.60;99.90;;;;;;5013925;28;20685;-85
2021/01/04 08:56:27;;;;;;;15.82;12.57;;;2.70;99.90;;;;;;4986081;28;20523;-81
2021/01/04 08:59:33;;;;;;;13.80;10.90;;;2.70;99.90;;;;;;4997717;28;20198;-81
2021/01/04 09:02:21;;;;;;;11.98;9.13;;;2.70;99.90;;;;;;4993870;28;20434;-80
2021/01/04 09:15:08;;;;;;;11.88;8.95;;;2.70;99.90;;;;;;5257318;23;20248;-89
2021/01/04 09:17:53;;;;;;;11.53;8.90;;;2.70;99.90;;;;;;5017421;28;20215;-88
2021/01/04 09:20:58;;;;;;;12.40;9.50;;;2.70;99.90;;;;;;5023370;28;20441;-88
2021/01/04 09:23:51;;;;;;;;;;;;;;;;;;;;;
2021/01/04 09:26:52;;;;;;;12.95;10.20;;;2.80;99.90;;;;;;5017276;28;20237;-87
2021/01/04 09:29:50;;;;;;;13.63;9.82;;;2.70;99.90;;;;;;5023471;28;20211;-89
2021/01/04 09:32:40;;;;;;;13.95;10.02;;;2.80;99.90;;;;;;5005154;28;20230;-88
2021/01/04 09:35:50;;;;;;;10.67;8.90;;;2.80;99.90;;;;;;5017656;28;20191;-87
2021/01/04 09:38:36;;;;;;;10.80;8.10;;;2.70;99.90;;;;;;5026088;28;20837;-88
2021/01/04 09:41:12;;;;;;;10.65;8.60;;;2.70;99.90;;;;;;5030165;28;20642;-90
2021/01/04 09:43:40;;;;;;;13.02;9.65;;;2.70;99.90;;;;;;5019554;28;20197;-88
2021/01/04 09:46:17;;;;;;;10.70;8.55;;;2.80;99.90;;;;;;5014007;28;20294;-88
2021/01/04 09:48:49;;;;;;;10.87;8.73;;;2.80;99.90;;;;;;5011253;28;20236;-91
2021/01/04 09:51:20;;;;;;;9.40;7.45;;;2.80;99.90;;;;;;5028056;28;20916;-89
2021/01/04 09:53:56;;;;;;;10.10;7.95;;;2.90;99.90;;;;;;5034365;28;20214;-90
2021/01/04 09:56:32;;;;;;;9.60;7.33;;;2.90;99.90;;;;;;5008908;28;20194;-89
2021/01/04 09:59:04;;;;;;;9.90;7.30;;;2.90;99.90;;;;;;5017371;28;20474;-88
2021/01/04 10:01:32;;;;;;;8.40;7.20;;;2.90;99.90;;;;;;5023544;28;20202;-88
2021/01/04 10:04:00;;;;;;;9.40;8.10;;;2.90;99.90;;;;;;5034634;28;20424;-89
2021/01/04 10:06:32;;;;;;;9.57;7.80;;;3.00;99.90;;;;;;5034418;28;20256;-88
2021/01/04 10:08:59;;;;;;;9.27;6.80;;;3.00;99.90;;;;;;5035248;28;20284;-89
2021/01/04 10:11:30;;;;;;;10.00;7.80;;;3.00;99.90;;;;;;5018244;28;20209;-88
2021/01/04 10:14:04;;;;;;;9.13;7.47;;;2.90;99.90;;;;;;5011425;28;20329;-91
2021/01/04 10:16:33;;;;;;;9.40;7.68;;;2.90;99.90;;;;;;5017657;28;20533;-90
2021/01/04 10:19:07;;;;;;;9.47;7.10;;;3.00;99.90;;;;;;5012372;28;20208;-91
2021/01/04 10:21:41;;;;;;;10.10;7.63;;;3.00;99.90;;;;;;5015736;28;20540;-89
2021/01/04 10:24:14;;;;;;;12.10;8.80;;;3.00;99.90;;;;;;5009549;28;20449;-89
2021/01/04 10:26:42;;;;;;;11.83;9.50;;;3.00;99.90;;;;;;5015952;28;20702;-89
2021/01/04 10:29:11;;;;;;;12.23;8.73;;;2.90;99.90;;;;;;5017647;28;20453;-89
2021/01/04 10:31:37;;;;;;;12.40;9.83;;;2.80;99.90;;;;;;5020470;28;20286;-89
2021/01/04 10:34:10;;;;;;;9.50;8.18;;;2.80;99.90;;;;;;5022199;28;20524;-88
2021/01/04 10:36:38;;;;;;;10.57;8.57;;;2.90;99.90;;;;;;5015536;28;20282;-89
2021/01/04 10:39:08;;;;;;;13.00;9.18;;;2.90;99.90;;;;;;5015242;28;20545;-89
2021/01/04 10:41:36;;;;;;;13.25;9.23;;;3.00;99.90;;;;;;5013062;28;20234;-89
2021/01/04 10:44:08;;;;;;;14.52;10.63;;;3.00;99.90;;;;;;5012246;28;20293;-89
2021/01/04 10:46:39;;;;;;;13.40;10.70;;;3.10;99.90;;;;;;5025614;28;20638;-89
2021/01/04 10:49:09;;;;;;;12.77;9.82;;;3.00;99.90;;;;;;5036565;28;20436;-89
2021/01/04 10:51:39;;;;;;;14.80;10.10;;;3.20;99.90;;;;;;5021632;28;20299;-88
2021/01/04 10:54:14;;;;;;;13.10;10.50;;;3.20;99.90;;;;;;5014506;28;20469;-89
2021/01/04 10:56:44;;;;;;;13.30;11.00;;;3.40;99.90;;;;;;5014808;28;20510;-89
2021/01/04 10:59:27;;;;;;;13.33;11.30;;;3.30;99.90;;;;;;5017967;28;20550;-88
2021/01/04 11:01:57;;;;;;;12.03;9.57;;;3.40;99.90;;;;;;5017451;28;20453;-87
2021/01/04 11:04:26;;;;;;;12.97;9.50;;;3.30;99.90;;;;;;5018302;28;20462;-88
2021/01/04 11:07:18;;;;;;;11.70;9.43;;;3.50;99.90;;;;;;5017157;28;20465;-88
2021/01/04 11:09:45;;;;;;;13.73;10.80;;;3.40;99.90;;;;;;5012589;28;20468;-88
2021/01/04 11:12:14;;;;;;;15.17;11.87;;;3.40;99.90;;;;;;5016746;28;20445;-89
2021/01/04 11:14:56;;;;;;;18.63;11.90;;;3.40;99.90;;;;;;5013855;28;20481;-89
2021/01/04 11:17:27;;;;;;;14.00;10.77;;;3.50;99.90;;;;;;5014737;28;20399;-88
2021/01/04 11:19:54;;;;;;;16.57;11.07;;;3.50;99.90;;;;;;5012237;28;20462;-88
2021/01/04 11:22:25;;;;;;;16.37;13.33;;;3.60;99.90;;;;;;5020441;28;20478;-88
2021/01/04 11:24:52;;;;;;;18.40;12.75;;;3.40;99.90;;;;;;5019926;28;20438;-88
2021/01/04 11:27:19;;;;;;;16.87;13.40;;;3.40;99.90;;;;;;5018798;28;20330;-88
2021/01/04 11:29:49;;;;;;;16.37;12.80;;;3.40;99.90;;;;;;5028015;28;20462;-88
2021/01/04 11:32:16;;;;;;;15.70;12.80;;;3.40;99.90;;;;;;5037942;28;21001;-88
2021/01/04 11:34:44;;;;;;;14.83;11.37;;;3.50;99.90;;;;;;5037460;28;20459;-87
2021/01/04 11:37:12;;;;;;;15.33;12.43;;;3.40;99.90;;;;;;5038096;28;20535;-88
2021/01/04 11:39:38;;;;;;;14.37;10.67;;;3.50;99.90;;;;;;5037507;28;20441;-88
2021/01/04 11:42:06;;;;;;;14.83;11.40;;;3.50;99.90;;;;;;5040279;28;20506;-88
2021/01/04 11:44:32;;;;;;;15.97;10.83;;;3.40;99.90;;;;;;5045925;28;20464;-88
2021/01/04 11:47:00;;;;;;;12.37;11.03;;;3.50;99.90;;;;;;5048025;28;20825;-88
2021/01/04 11:49:26;;;;;;;14.50;12.33;;;3.60;99.90;;;;;;5049014;28;20540;-87
2021/01/04 11:51:53;;;;;;;15.70;11.97;;;3.70;99.90;;;;;;5049265;28;20468;-88
2021/01/04 11:54:21;;;;;;;14.10;11.93;;;3.80;99.90;;;;;;5049983;28;20480;-89
2021/01/04 11:56:50;;;;;;;17.03;14.03;;;3.60;99.90;;;;;;5049981;28;20453;-88
2021/01/04 11:59:17;;;;;;;18.00;13.87;;;3.70;99.90;;;;;;5040597;28;20511;-88
2021/01/04 12:01:43;;;;;;;18.83;14.37;;;3.60;99.90;;;;;;5017703;28;20458;-88
2021/01/04 12:04:10;;;;;;;15.60;13.10;;;3.70;99.90;;;;;;5017461;28;20580;-88
2021/01/04 12:06:36;;;;;;;16.70;13.03;;;3.80;99.90;;;;;;5017471;28;20451;-88
2021/01/04 12:09:04;;;;;;;17.00;13.70;;;3.90;99.90;;;;;;5017583;28;20485;-88
2021/01/04 12:11:37;;;;;;;14.13;11.97;;;3.90;99.90;;;;;;5019998;28;20989;-88
2021/01/04 12:14:04;;;;;;;14.57;11.37;;;3.80;99.90;;;;;;5014666;28;20582;-92
2021/01/04 12:16:33;;;;;;;16.45;13.02;;;3.80;99.90;;;;;;5015585;28;20525;-88
2021/01/04 12:19:00;;;;;;;16.60;12.03;;;3.80;99.90;;;;;;5017592;28;20257;-88
2021/01/04 12:21:27;;;;;;;18.63;13.30;;;3.70;99.90;;;;;;5031382;28;20449;-88
2021/01/04 12:23:53;;;;;;;17.70;13.53;;;3.70;99.90;;;;;;5035940;28;20842;-89
2021/01/04 12:26:22;;;;;;;14.93;11.30;;;3.70;99.90;;;;;;5023298;28;20442;-89
2021/01/04 12:28:50;;;;;;;16.53;12.80;;;3.70;99.90;;;;;;5017622;28;20520;-88
2021/01/04 12:31:18;;;;;;;16.10;11.53;;;3.80;99.90;;;;;;5017034;28;20446;-88
2021/01/04 12:33:45;;;;;;;16.80;12.77;;;3.80;99.90;;;;;;5017148;28;20485;-88
2021/01/04 12:36:16;;;;;;;16.63;12.00;;;3.80;99.90;;;;;;5016319;28;20550;-90
2021/01/04 12:38:44;;;;;;;15.40;12.10;;;3.80;99.90;;;;;;5017508;28;20562;-89
2021/01/04 12:41:11;;;;;;;19.07;12.17;;;3.70;99.90;;;;;;5030062;28;20457;-89
2021/01/04 12:43:37;;;;;;;15.90;11.93;;;3.70;99.90;;;;;;5037111;28;20916;-88
2021/01/04 12:46:05;;;;;;;14.53;11.50;;;3.70;99.90;;;;;;5033657;28;20891;-88
2021/01/04 12:48:32;;;;;;;12.77;9.57;;;3.80;99.90;;;;;;5016966;28;20566;-89
2021/01/04 12:50:59;;;;;;;13.07;11.03;;;3.70;99.90;;;;;;5027022;28;20453;-89
2021/01/04 12:53:25;;;;;;;14.00;11.10;;;3.80;99.90;;;;;;5040140;28;20455;-89
2021/01/04 12:55:55;;;;;;;12.03;9.47;;;3.70;99.90;;;;;;5037324;28;20769;-92
2021/01/04 12:58:21;;;;;;;13.67;11.50;;;3.70;99.90;;;;;;5041243;28;20528;-89
2021/01/04 13:00:50;;;;;;;13.70;10.73;;;3.60;99.90;;;;;;5017437;28;20518;-89
2021/01/04 13:03:17;;;;;;;14.63;11.80;;;3.60;99.90;;;;;;5017383;28;20472;-89
2021/01/04 13:05:44;;;;;;;12.87;10.63;;;3.70;99.90;;;;;;5017471;28;20560;-89
2021/01/04 13:08:11;;;;;;;14.90;10.23;;;3.60;99.90;;;;;;5023311;28;20450;-89
2021/01/04 13:10:37;;;;;;;15.20;11.40;;;3.60;99.90;;;;;;5020018;28;20718;-89
2021/01/04 13:13:03;;;;;;;14.37;11.00;;;3.60;99.90;;;;;;5017843;28;20481;-88
2021/01/04 13:15:30;;;;;;;12.07;10.50;;;3.60;99.90;;;;;;5013869;28;20597;-89
2021/01/04 13:17:56;;;;;;;12.73;10.13;;;3.70;99.90;;;;;;5022903;28;20545;-89
2021/01/04 13:20:23;;;;;;;13.07;10.47;;;3.70;99.90;;;;;;5022145;28;20491;-89
2021/01/04 13:22:50;;;;;;;14.03;11.37;;;3.70;99.90;;;;;;5036649;28;20964;-89
2021/01/04 13:25:16;;;;;;;12.10;9.50;;;3.70;99.90;;;;;;5038078;28;20469;-89
2021/01/04 13:27:43;;;;;;;11.40;10.20;;;3.80;99.90;;;;;;5036968;28;20479;-88
2021/01/04 13:30:11;;;;;;;14.47;11.47;;;3.80;99.90;;;;;;5020969;28;20516;-90
2021/01/04 13:32:37;;;;;;;12.13;10.17;;;3.90;99.90;;;;;;5016289;28;20973;-89
2021/01/04 13:35:04;;;;;;;13.07;11.27;;;3.90;99.90;;;;;;5017370;28;20492;-90
2021/01/04 13:37:32;;;;;;;18.17;11.60;;;3.80;99.90;;;;;;5014634;28;20457;-89
2021/01/04 13:39:58;;;;;;;13.27;11.10;;;3.80;99.90;;;;;;5036963;28;20534;-90
2021/01/04 13:42:25;;;;;;;14.63;12.07;;;3.80;99.90;;;;;;5018064;28;20452;-90